Time;durP1;ratioP1;P1;durP2;ratioP2;P2;SDS_P1;SDS_P2;PMS_P1;PMS_P2;Temp;Humidity;BMP_temperature;BMP_pressure;BME280_temperature;BME280_humidity;BME280_pressure;Samples;Min_cycle;Max_cycle;Signal;HPM_P1;HPM_P2
2022/12/05 00:01:53;;;;;;;22.17;12.95;;;;;;;7.35;100.00;96034.94;5069961;28;20079;-44
2022/12/05 00:04:22;;;;;;;23.10;12.63;;;;;;;7.20;100.00;96039.75;5070190;28;20072;-41
2022/12/05 00:06:51;;;;;;;19.35;11.88;;;;;;;7.55;100.00;96038.44;5069503;28;20068;-41
2022/12/05 00:09:20;;;;;;;19.60;11.50;;;;;;;7.13;100.00;96036.00;5069007;28;20411;-41
2022/12/05 00:11:48;;;;;;;19.73;12.27;;;;;;;6.83;100.00;96048.16;5069655;28;20068;-45
2022/12/05 00:14:17;;;;;;;19.90;12.25;;;;;;;7.40;100.00;96048.50;5069668;28;20532;-44
2022/12/05 00:16:45;;;;;;;19.55;12.25;;;;;;;7.74;100.00;96041.09;5069490;28;20083;-47
2022/12/05 00:19:15;;;;;;;20.25;12.27;;;;;;;7.49;100.00;96045.03;5069581;28;20465;-53
2022/12/05 00:21:44;;;;;;;19.63;12.55;;;;;;;7.63;100.00;96041.19;5070337;28;20087;-47
2022/12/05 00:24:15;;;;;;;18.25;11.85;;;;;;;7.42;100.00;96045.72;5056647;28;20072;-45
2022/12/05 00:26:44;;;;;;;22.75;12.77;;;;;;;7.43;100.00;96045.56;5064786;28;20103;-45
2022/12/05 00:29:12;;;;;;;18.25;11.43;;;;;;;6.89;100.00;96047.66;5068942;28;20084;-45
2022/12/05 00:31:41;;;;;;;20.35;12.77;;;;;;;7.46;100.00;96052.34;5068784;28;20084;-47
2022/12/05 00:34:09;;;;;;;21.27;12.32;;;;;;;7.17;100.00;96058.38;5069590;28;20087;-45
2022/12/05 00:36:37;;;;;;;19.85;12.15;;;;;;;7.31;100.00;96065.84;5049280;28;20095;-44
2022/12/05 00:39:08;;;;;;;19.17;12.48;;;;;;;7.40;100.00;96061.59;5064063;28;20087;-43
2022/12/05 00:41:38;;;;;;;22.48;13.27;;;;;;;7.53;100.00;96066.59;5069313;28;20107;-47
2022/12/05 00:44:06;;;;;;;20.50;12.77;;;;;;;7.24;100.00;96056.88;5069130;28;20072;-47
2022/12/05 00:46:35;;;;;;;18.52;12.02;;;;;;;7.61;100.00;96062.34;5069053;28;20091;-44
2022/12/05 00:49:05;;;;;;;20.77;12.30;;;;;;;7.37;100.00;96064.50;5068839;28;20076;-49
2022/12/05 00:51:36;;;;;;;21.08;12.25;;;;;;;7.22;100.00;96073.69;5068969;28;20083;-50
2022/12/05 00:54:06;;;;;;;20.38;11.95;;;;;;;7.29;100.00;96075.63;5069006;28;20095;-42
2022/12/05 00:56:35;;;;;;;19.42;11.95;;;;;;;6.95;100.00;96096.09;5068848;28;20076;-42
2022/12/05 00:59:05;;;;;;;19.33;11.55;;;;;;;7.11;100.00;96087.72;5069397;28;20087;-45
2022/12/05 01:01:35;;;;;;;16.77;11.52;;;;;;;6.65;100.00;96096.91;5069041;28;20072;-42
2022/12/05 01:04:06;;;;;;;20.38;12.35;;;;;;;6.88;100.00;96087.94;5068817;28;20080;-42
2022/12/05 01:06:34;;;;;;;19.80;12.10;;;;;;;6.45;100.00;96089.88;5068573;28;20099;-46
2022/12/05 01:09:05;;;;;;;20.48;11.40;;;;;;;6.50;100.00;96092.94;5068241;28;20125;-41
2022/12/05 01:11:34;;;;;;;19.60;11.88;;;;;;;6.84;100.00;96096.16;5066770;28;20091;-42
2022/12/05 01:14:10;;;;;;;22.15;12.55;;;;;;;6.70;100.00;96092.09;5058862;28;20077;-42
2022/12/05 01:16:40;;;;;;;22.50;12.70;;;;;;;7.07;100.00;96095.03;5066364;28;20080;-44
2022/12/05 01:19:11;;;;;;;24.20;13.50;;;;;;;7.41;100.00;96091.28;5063837;28;20103;-41
2022/12/05 01:21:39;;;;;;;23.05;13.05;;;;;;;7.32;100.00;96106.03;5066232;28;20083;-48
2022/12/05 01:24:08;;;;;;;23.95;12.63;;;;;;;7.35;100.00;96098.72;5068115;28;20076;-50
2022/12/05 01:26:36;;;;;;;20.75;12.75;;;;;;;7.37;100.00;96107.28;5068075;28;20551;-48
2022/12/05 01:29:04;;;;;;;22.10;13.00;;;;;;;6.71;100.00;96108.63;5067841;28;20544;-49
2022/12/05 01:31:36;;;;;;;23.20;12.90;;;;;;;6.84;100.00;96106.66;5067147;28;20081;-42
2022/12/05 01:34:06;;;;;;;18.95;11.88;;;;;;;7.29;100.00;96119.41;5067642;28;20558;-49
2022/12/05 01:36:35;;;;;;;21.60;12.57;;;;;;;7.26;100.00;96128.38;5067891;28;20091;-44
2022/12/05 01:39:03;;;;;;;20.60;12.30;;;;;;;6.99;100.00;96130.75;5067636;28;20111;-40
2022/12/05 01:41:34;;;;;;;20.90;12.90;;;;;;;7.08;100.00;96141.25;5067899;28;20523;-40
2022/12/05 01:44:04;;;;;;;22.00;11.95;;;;;;;6.91;100.00;96147.09;5068075;28;20168;-42
2022/12/05 01:46:36;;;;;;;22.08;12.40;;;;;;;7.23;100.00;96138.31;5067730;28;20652;-41
2022/12/05 01:49:07;;;;;;;19.25;11.70;;;;;;;7.16;100.00;96139.75;5067266;28;20531;-45
2022/12/05 01:51:37;;;;;;;19.15;11.75;;;;;;;7.24;100.00;96119.81;5067504;28;20516;-41
2022/12/05 01:54:06;;;;;;;23.13;13.32;;;;;;;7.52;100.00;96128.72;5067792;28;20079;-47
2022/12/05 01:56:35;;;;;;;19.92;12.20;;;;;;;7.43;100.00;96123.44;5067720;28;20087;-43
2022/12/05 01:59:05;;;;;;;22.15;13.05;;;;;;;7.16;100.00;96122.28;5067691;28;20547;-44
2022/12/05 02:01:35;;;;;;;21.20;11.82;;;;;;;6.55;100.00;96137.94;5066467;28;20080;-45
2022/12/05 02:04:04;;;;;;;18.45;10.93;;;;;;;6.30;100.00;96153.06;5067710;28;20087;-46
2022/12/05 02:06:32;;;;;;;17.73;10.60;;;;;;;6.40;100.00;96156.59;5067551;28;20082;-43
2022/12/05 02:09:02;;;;;;;16.42;9.80;;;;;;;6.13;100.00;96169.31;5067107;28;20132;-43
2022/12/05 02:11:32;;;;;;;20.27;11.77;;;;;;;6.01;100.00;96178.13;5067305;28;20068;-46
2022/12/05 02:14:10;;;;;;;21.33;11.68;;;;;;;6.02;100.00;96179.78;5067564;28;20083;-49
2022/12/05 02:16:50;;;;;;;20.33;11.23;;;;;;;6.26;100.00;96187.44;5055004;28;20111;-46
2022/12/05 02:19:43;;;;;;;18.05;11.27;;;;;;;6.36;100.00;96181.34;5047235;28;20103;-46
2022/12/05 02:22:45;;;;;;;16.80;10.60;;;;;;;5.97;100.00;96182.78;5066941;28;20084;-45
2022/12/05 02:25:46;;;;;;;20.05;10.75;;;;;;;5.66;100.00;96190.44;5052219;28;20080;-42
2022/12/05 02:28:32;;;;;;;20.48;10.65;;;;;;;5.64;100.00;96201.97;5067307;28;20145;-40
2022/12/05 02:31:07;;;;;;;18.27;10.02;;;;;;;5.61;100.00;96215.28;5066699;28;20088;-47
2022/12/05 02:33:39;;;;;;;21.92;12.32;;;;;;;5.80;100.00;96210.28;5057175;28;20530;-44
2022/12/05 02:36:11;;;;;;;22.70;11.80;;;;;;;5.51;100.00;96206.50;5056332;28;20099;-46
2022/12/05 02:38:44;;;;;;;18.77;11.27;;;;;;;5.79;100.00;96206.00;5067188;28;20456;-44
2022/12/05 02:41:16;;;;;;;18.55;11.25;;;;;;;5.70;100.00;96212.78;5067218;28;20524;-45
2022/12/05 02:43:47;;;;;;;23.85;13.18;;;;;;;5.85;100.00;96202.91;5067460;28;20095;-43
2022/12/05 02:46:21;;;;;;;22.67;12.75;;;;;;;5.87;100.00;96215.84;5067273;28;20064;-42
2022/12/05 02:48:52;;;;;;;19.20;11.57;;;;;;;5.83;100.00;96215.25;5066610;28;20092;-41
2022/12/05 02:51:20;;;;;;;;;;;;;;;5.83;100.00;96215.25;5067683;28;20566;-41
2022/12/05 02:53:50;;;;;;;27.50;13.02;;;;;;;6.17;100.00;96225.69;5067210;28;19952;-45
2022/12/05 02:56:19;;;;;;;24.15;12.60;;;;;;;5.96;100.00;96225.63;5066896;28;20071;-41
2022/12/05 02:58:52;;;;;;;22.77;12.43;;;;;;;5.93;100.00;96223.25;5066359;28;20084;-44
2022/12/05 03:01:23;;;;;;;25.83;13.13;;;;;;;6.12;100.00;96227.84;5066906;28;20072;-44
2022/12/05 03:03:51;;;;;;;21.33;11.60;;;;;;;6.01;100.00;96226.09;5065865;28;20068;-46
2022/12/05 03:06:23;;;;;;;15.75;9.60;;;;;;;5.56;100.00;96231.34;5066890;28;20075;-44
2022/12/05 03:08:54;;;;;;;22.35;10.45;;;;;;;5.79;100.00;96234.78;5066596;28;20091;-43
2022/12/05 03:11:22;;;;;;;16.17;10.10;;;;;;;5.52;100.00;96231.72;5065922;28;20095;-42
2022/12/05 03:13:52;;;;;;;29.42;13.07;;;;;;;5.84;100.00;96224.75;5046920;28;20088;-43
2022/12/05 03:16:25;;;;;;;22.45;11.13;;;;;;;5.56;100.00;96228.72;5056151;28;20504;-40
2022/12/05 03:18:57;;;;;;;23.25;11.05;;;;;;;5.54;100.00;96228.03;5066237;28;20087;-48
2022/12/05 03:21:30;;;;;;;26.27;12.07;;;;;;;5.68;100.00;96234.78;5064360;28;20086;-44
2022/12/05 03:24:01;;;;;;;19.90;10.40;;;;;;;5.36;100.00;96240.72;5046802;28;20084;-47
2022/12/05 03:26:37;;;;;;;21.88;11.68;;;;;;;5.79;100.00;96247.03;5056226;28;20072;-43
2022/12/05 03:29:23;;;;;;;25.25;12.10;;;;;;;5.67;100.00;96240.97;5066544;28;20520;-41
2022/12/05 03:31:58;;;;;;;18.90;11.40;;;;;;;5.70;100.00;96253.81;5066053;28;20107;-43
2022/12/05 03:34:34;;;;;;;23.80;11.82;;;;;;;5.75;100.00;96269.13;5066727;28;20075;-42
2022/12/05 03:37:05;;;;;;;18.25;10.35;;;;;;;5.38;100.00;96275.44;5066289;28;20504;-46
2022/12/05 03:39:35;;;;;;;26.73;12.95;;;;;;;5.85;100.00;96265.69;5066285;28;20072;-42
2022/12/05 03:42:09;;;;;;;25.63;12.35;;;;;;;5.71;100.00;96274.63;5067373;28;20088;-42
2022/12/05 03:44:44;;;;;;;21.85;11.25;;;;;;;5.80;100.00;96269.63;5070387;28;20080;-46
2022/12/05 03:47:18;;;;;;;24.13;11.85;;;;;;;6.00;100.00;96263.69;5070002;28;20071;-44
2022/12/05 03:49:49;;;;;;;20.92;11.88;;;;;;;6.01;100.00;96267.97;5070159;28;20088;-44
2022/12/05 03:52:18;;;;;;;;;;;;;;;6.39;100.00;96274.53;5070347;28;20076;-44
2022/12/05 03:54:49;;;;;;;22.02;11.02;;;;;;;5.91;100.00;96273.06;5069481;28;19964;-46
2022/12/05 03:57:20;;;;;;;19.83;10.57;;;;;;;5.77;100.00;96277.72;5069097;28;20079;-43
2022/12/05 03:59:51;;;;;;;25.92;13.10;;;;;;;6.09;100.00;96283.91;5070060;28;20124;-44
2022/12/05 04:02:24;;;;;;;23.80;11.98;;;;;;;6.14;100.00;96289.59;5069803;28;20072;-41
2022/12/05 04:04:55;;;;;;;26.10;14.38;;;;;;;6.19;100.00;96297.06;5070074;28;20558;-41
2022/12/05 04:07:23;;;;;;;;;;;;;;;6.30;100.00;96299.69;5070209;28;20122;-43
2022/12/05 04:09:56;;;;;;;18.33;10.63;;;;;;;5.82;100.00;96309.59;5069861;28;19959;-41
2022/12/05 04:12:27;;;;;;;20.38;12.35;;;;;;;6.07;100.00;96314.59;5069030;28;20084;-45
2022/12/05 04:14:57;;;;;;;22.67;11.85;;;;;;;6.12;100.00;96316.84;5069757;28;20079;-44
2022/12/05 04:17:30;;;;;;;28.27;14.75;;;;;;;6.14;100.00;96312.34;5067853;28;20067;-45
2022/12/05 04:22:47;;;;;;;24.48;13.35;;;;;;;6.00;100.00;96308.19;5069543;28;20080;-48
2022/12/05 04:25:34;;;;;;;22.70;11.80;;;;;;;6.01;100.00;96314.25;5069682;28;20072;-47
2022/12/05 04:28:14;;;;;;;22.05;11.45;;;;;;;5.97;100.00;96321.50;5069276;28;20079;-44
2022/12/05 04:30:50;;;;;;;20.98;11.68;;;;;;;6.13;100.00;96329.84;5067211;28;20079;-45
2022/12/05 04:33:25;;;;;;;20.38;11.98;;;;;;;5.94;100.00;96319.13;5069753;28;20072;-42
2022/12/05 04:35:55;;;;;;;21.95;13.32;;;;;;;6.04;100.00;96316.63;5067006;28;20586;-42
2022/12/05 04:38:26;;;;;;;20.55;11.75;;;;;;;5.99;100.00;96308.28;5068723;28;20079;-41
2022/12/05 04:40:58;;;;;;;18.90;10.20;;;;;;;5.78;100.00;96313.38;5067367;28;20072;-45
2022/12/05 04:43:28;;;;;;;17.98;10.65;;;;;;;5.84;100.00;96326.00;5068292;28;20076;-41
2022/12/05 04:45:57;;;;;;;15.48;9.98;;;;;;;5.89;100.00;96322.06;5068742;28;20481;-41
2022/12/05 04:48:28;;;;;;;19.95;11.45;;;;;;;5.85;100.00;96317.19;5068746;28;20080;-45
2022/12/05 04:50:57;;;;;;;20.13;11.43;;;;;;;6.10;100.00;96321.38;5067136;28;20071;-43
2022/12/05 04:53:27;;;;;;;19.80;10.77;;;;;;;6.04;100.00;96320.06;5068035;28;20083;-49
2022/12/05 04:55:58;;;;;;;19.63;12.20;;;;;;;6.27;100.00;96313.03;5068293;28;20091;-48
2022/12/05 04:58:27;;;;;;;17.08;10.45;;;;;;;6.29;100.00;96316.34;5067519;28;20087;-42
2022/12/05 05:00:59;;;;;;;19.75;11.00;;;;;;;6.23;100.00;96316.84;5068325;28;20072;-49
2022/12/05 05:03:31;;;;;;;20.58;10.93;;;;;;;6.04;100.00;96314.84;5048283;28;20080;-45
2022/12/05 05:06:00;;;;;;;22.20;12.02;;;;;;;6.33;100.00;96316.94;5067169;28;20528;-51
2022/12/05 05:08:29;;;;;;;18.52;10.98;;;;;;;6.55;100.00;96308.22;5048818;28;20219;-45
2022/12/05 05:11:04;;;;;;;21.25;10.93;;;;;;;6.46;100.00;96306.31;5048559;28;20084;-43
2022/12/05 05:13:32;;;;;;;21.02;11.98;;;;;;;6.68;100.00;96318.53;5049620;28;20082;-46
2022/12/05 05:16:00;;;;;;;23.33;11.57;;;;;;;6.37;100.00;96313.13;5068199;28;20074;-47
2022/12/05 05:18:30;;;;;;;21.80;12.25;;;;;;;6.36;100.00;96309.66;5048371;28;20099;-47
2022/12/05 05:20:59;;;;;;;21.48;11.98;;;;;;;6.60;100.00;96312.09;5048010;28;20493;-43
2022/12/05 05:23:27;;;;;;;22.20;11.93;;;;;;;6.75;100.00;96301.38;5067975;28;20535;-44
2022/12/05 05:25:56;;;;;;;23.15;12.48;;;;;;;6.97;100.00;96293.38;5068325;28;20103;-40
2022/12/05 05:28:24;;;;;;;21.30;12.27;;;;;;;7.05;100.00;96303.22;5067751;28;20103;-45
2022/12/05 05:30:53;;;;;;;21.25;12.40;;;;;;;6.67;100.00;96315.06;5067742;28;20092;-43
2022/12/05 05:33:21;;;;;;;22.70;12.95;;;;;;;6.73;100.00;96311.13;5068027;28;20084;-45
2022/12/05 05:35:51;;;;;;;23.67;13.52;;;;;;;7.05;100.00;96306.69;5068162;28;20535;-47
2022/12/05 05:38:19;;;;;;;25.55;13.55;;;;;;;7.01;100.00;96309.69;5066959;28;20095;-43
2022/12/05 05:40:47;;;;;;;23.55;13.65;;;;;;;7.16;100.00;96311.06;5067536;28;20144;-43
2022/12/05 05:43:15;;;;;;;26.15;13.98;;;;;;;7.27;100.00;96324.13;5067431;28;20079;-41
2022/12/05 05:45:44;;;;;;;22.83;13.35;;;;;;;7.44;100.00;96325.34;5066663;28;20270;-46
2022/12/05 05:48:12;;;;;;;25.75;13.95;;;;;;;7.54;100.00;96325.41;5067129;28;20076;-48
2022/12/05 05:50:40;;;;;;;27.25;14.40;;;;;;;7.32;100.00;96329.78;5067648;28;20144;-46
2022/12/05 05:53:10;;;;;;;25.02;14.02;;;;;;;7.81;100.00;96319.56;5067388;28;20088;-47
2022/12/05 05:55:39;;;;;;;25.40;13.77;;;;;;;7.59;100.00;96331.91;5067385;28;20532;-42
2022/12/05 05:58:07;;;;;;;25.48;14.32;;;;;;;7.60;100.00;96327.47;5067019;28;20084;-44
2022/12/05 06:00:36;;;;;;;29.48;15.10;;;;;;;7.87;100.00;96328.72;5062664;28;20076;-41
2022/12/05 06:03:04;;;;;;;29.48;14.45;;;;;;;7.90;100.00;96331.09;5061771;28;20622;-43
2022/12/05 06:05:32;;;;;;;30.92;15.38;;;;;;;8.07;100.00;96331.31;5067201;28;20076;-43
2022/12/05 06:08:01;;;;;;;28.33;14.48;;;;;;;8.03;100.00;96336.97;5066904;28;20087;-41
2022/12/05 06:10:31;;;;;;;27.92;14.77;;;;;;;8.13;100.00;96337.84;5067238;28;20080;-45
2022/12/05 06:13:00;;;;;;;28.00;15.07;;;;;;;8.12;100.00;96327.44;5067464;28;20079;-41
2022/12/05 06:15:28;;;;;;;29.05;14.20;;;;;;;7.95;100.00;96332.38;5067523;28;20501;-45
2022/12/05 06:17:56;;;;;;;28.45;14.70;;;;;;;8.02;100.00;96335.31;5066511;28;20080;-42
2022/12/05 06:20:25;;;;;;;29.33;15.75;;;;;;;8.20;100.00;96344.22;5067747;28;20095;-44
2022/12/05 06:22:53;;;;;;;28.75;15.57;;;;;;;8.00;100.00;96352.97;5067823;28;20107;-43
2022/12/05 06:25:21;;;;;;;26.73;15.57;;;;;;;7.98;100.00;96362.78;5068409;28;20071;-44
2022/12/05 06:27:51;;;;;;;27.73;14.93;;;;;;;8.36;100.00;96361.28;5067858;28;20083;-42
2022/12/05 06:30:19;;;;;;;30.45;14.65;;;;;;;8.29;100.00;96364.44;5067752;28;20106;-48
2022/12/05 06:32:48;;;;;;;28.45;15.52;;;;;;;8.41;100.00;96364.38;5067276;28;20080;-40
2022/12/05 06:35:16;;;;;;;29.95;14.88;;;;;;;8.16;100.00;96361.22;5067547;28;20072;-40
2022/12/05 06:37:45;;;;;;;31.38;15.63;;;;;;;8.35;100.00;96370.94;5067014;28;20376;-45
2022/12/05 06:40:14;;;;;;;28.92;15.50;;;;;;;8.42;100.00;96372.09;5067218;28;20159;-48
2022/12/05 06:42:42;;;;;;;28.73;14.80;;;;;;;8.41;100.00;96380.13;5066915;28;20103;-43
2022/12/05 06:45:12;;;;;;;28.70;15.52;;;;;;;8.49;100.00;96378.50;5064304;28;20481;-43
2022/12/05 06:47:41;;;;;;;29.33;15.23;;;;;;;8.58;100.00;96382.13;5055259;28;20444;-44
2022/12/05 06:50:10;;;;;;;29.65;15.95;;;;;;;8.54;100.00;96386.00;5067108;28;20562;-44
2022/12/05 06:52:38;;;;;;;29.73;15.55;;;;;;;8.56;100.00;96381.41;5066919;28;20679;-43
2022/12/05 06:55:07;;;;;;;27.80;14.73;;;;;;;8.74;100.00;96386.84;5066865;28;20080;-47
2022/12/05 06:57:35;;;;;;;30.92;14.95;;;;;;;8.69;100.00;96392.53;5066213;28;20083;-42
2022/12/05 07:02:50;;;;;;;31.58;16.42;;;;;;;8.78;100.00;96398.78;5066288;28;20068;-49
2022/12/05 07:05:19;;;;;;;28.60;15.27;;;;;;;8.72;100.00;96397.53;5067170;28;20084;-49
2022/12/05 07:07:47;;;;;;;31.23;15.80;;;;;;;8.78;100.00;96410.13;5067197;28;20528;-44
2022/12/05 07:10:15;;;;;;;33.55;15.55;;;;;;;8.61;100.00;96416.03;5067385;28;20107;-44
2022/12/05 07:12:44;;;;;;;32.42;15.82;;;;;;;8.66;100.00;96420.88;5066825;28;20083;-44
2022/12/05 07:15:12;;;;;;;29.83;15.77;;;;;;;8.65;100.00;96420.06;5066821;28;20160;-45
2022/12/05 07:17:40;;;;;;;35.10;16.92;;;;;;;8.90;100.00;96423.16;5068161;28;20084;-43
2022/12/05 07:20:11;;;;;;;36.55;16.73;;;;;;;8.92;100.00;96421.25;5063912;28;20107;-42
2022/12/05 07:22:39;;;;;;;36.45;16.15;;;;;;;8.94;100.00;96430.63;5056909;28;20075;-47
2022/12/05 07:25:08;;;;;;;35.88;16.80;;;;;;;8.96;100.00;96420.81;5070453;28;20072;-47
2022/12/05 07:27:37;;;;;;;39.38;16.88;;;;;;;9.08;100.00;96424.16;5070273;28;20087;-46
2022/12/05 07:30:06;;;;;;;35.22;17.50;;;;;;;9.11;100.00;96416.00;5070587;28;20084;-43
2022/12/05 07:32:35;;;;;;;38.53;19.08;;;;;;;9.14;100.00;96420.97;5070222;28;20475;-42
2022/12/05 07:35:03;;;;;;;40.72;18.38;;;;;;;9.14;100.00;96418.34;5070465;28;20080;-42
2022/12/05 07:37:32;;;;;;;38.63;18.38;;;;;;;9.12;100.00;96414.19;5069709;28;20072;-48
2022/12/05 07:40:01;;;;;;;41.17;18.20;;;;;;;9.17;100.00;96410.19;5070211;28;20550;-41
2022/12/05 07:42:29;;;;;;;35.28;16.63;;;;;;;9.28;100.00;96406.59;5070362;28;20091;-46
2022/12/05 07:44:57;;;;;;;40.67;18.05;;;;;;;9.21;100.00;96410.75;5070392;28;20076;-47
2022/12/05 07:47:25;;;;;;;50.10;20.33;;;;;;;9.14;100.00;96418.34;5070091;28;20080;-43
2022/12/05 07:49:54;;;;;;;43.38;18.40;;;;;;;9.23;100.00;96420.19;5069861;28;20076;-43
2022/12/05 07:52:22;;;;;;;47.00;20.60;;;;;;;9.21;100.00;96419.47;5069685;28;20084;-50
2022/12/05 07:54:52;;;;;;;47.42;19.23;;;;;;;9.13;100.00;96421.97;5051588;28;20580;-46
2022/12/05 07:57:20;;;;;;;40.55;18.83;;;;;;;9.18;100.00;96422.38;5051772;28;20555;-46
2022/12/05 07:59:49;;;;;;;39.10;17.95;;;;;;;9.17;100.00;96420.72;5068184;28;20083;-43
2022/12/05 08:02:17;;;;;;;37.70;18.42;;;;;;;9.31;100.00;96426.53;5069280;28;20083;-47
2022/12/05 08:04:46;;;;;;;36.00;17.73;;;;;;;9.41;100.00;96424.75;5070139;28;20099;-47
2022/12/05 08:07:14;;;;;;;42.10;18.83;;;;;;;9.22;100.00;96428.19;5069640;28;20084;-43
2022/12/05 08:09:42;;;;;;;40.45;19.17;;;;;;;9.01;100.00;96428.28;5069382;28;20072;-48
2022/12/05 08:12:12;;;;;;;37.67;17.00;;;;;;;8.67;100.00;96433.91;5069581;28;20072;-47
2022/12/05 08:14:40;;;;;;;34.08;16.98;;;;;;;8.32;100.00;96440.34;5069612;28;20091;-44
2022/12/05 08:17:08;;;;;;;31.55;15.88;;;;;;;8.03;100.00;96439.38;5069602;28;20084;-45
2022/12/05 08:19:37;;;;;;;36.35;16.38;;;;;;;8.36;100.00;96440.91;5069014;28;20083;-48
2022/12/05 08:22:05;;;;;;;36.13;18.52;;;;;;;8.41;100.00;96443.19;5070177;28;20088;-48
2022/12/05 08:24:33;;;;;;;38.15;17.75;;;;;;;8.75;100.00;96436.69;5070179;28;20114;-48
2022/12/05 08:27:02;;;;;;;35.30;16.17;;;;;;;8.18;100.00;96453.00;5070087;28;20473;-42
2022/12/05 08:29:32;;;;;;;32.17;15.88;;;;;;;8.09;100.00;96460.72;5068237;28;20068;-41
2022/12/05 08:32:00;;;;;;;33.80;17.67;;;;;;;8.15;100.00;96461.97;5069393;28;20084;-46
2022/12/05 08:34:29;;;;;;;37.30;16.58;;;;;;;7.77;100.00;96458.13;5067868;28;20084;-42
2022/12/05 08:36:57;;;;;;;38.10;18.15;;;;;;;8.26;100.00;96455.84;5068801;28;20660;-43
2022/12/05 08:39:26;;;;;;;32.03;16.15;;;;;;;8.07;100.00;96454.75;5068476;28;20088;-48
2022/12/05 08:41:54;;;;;;;32.78;15.70;;;;;;;8.42;100.00;96450.13;5068968;28;20087;-46
2022/12/05 08:44:22;;;;;;;33.15;16.10;;;;;;;8.23;100.00;96462.16;5069603;28;20087;-47
2022/12/05 08:46:52;;;;;;;35.92;16.75;;;;;;;8.12;100.00;96464.88;5065125;28;20087;-45
2022/12/05 08:49:20;;;;;;;36.77;17.77;;;;;;;8.45;100.00;96473.50;5064653;28;20072;-41
2022/12/05 08:51:48;;;;;;;37.15;16.42;;;;;;;7.97;100.00;96479.28;5068623;28;20080;-46
2022/12/05 08:54:17;;;;;;;35.60;16.25;;;;;;;8.15;100.00;96485.59;5068587;28;20086;-48
2022/12/05 08:56:45;;;;;;;36.28;16.65;;;;;;;8.38;100.00;96486.34;5069350;28;20095;-46
2022/12/05 08:59:13;;;;;;;32.10;15.35;;;;;;;8.83;100.00;96500.91;5068723;28;20640;-47
2022/12/05 09:01:42;;;;;;;35.03;15.82;;;;;;;9.18;100.00;96490.78;5069484;28;20076;-49
2022/12/05 09:04:12;;;;;;;38.80;16.58;;;;;;;8.55;100.00;96488.34;5068787;28;20076;-43
2022/12/05 09:06:40;;;;;;;30.15;16.17;;;;;;;9.28;100.00;96494.25;5069549;28;20084;-41
2022/12/05 09:09:10;;;;;;;34.88;16.75;;;;;;;9.71;100.00;96493.06;5068431;28;20513;-44
2022/12/05 09:11:45;;;;;;;31.55;16.35;;;;;;;9.86;100.00;96488.22;5069269;28;20080;-46
2022/12/05 09:14:13;;;;;;;35.60;16.23;;;;;;;9.69;100.00;96487.09;5068951;28;20076;-46
2022/12/05 09:16:44;;;;;;;30.60;15.35;;;;;;;10.15;100.00;96492.59;5069389;28;20076;-45
2022/12/05 09:19:15;;;;;;;30.70;15.05;;;;;;;10.29;100.00;96483.47;5054030;28;20088;-45
2022/12/05 09:21:44;;;;;;;30.27;15.65;;;;;;;10.33;100.00;96484.88;5048727;28;20122;-51
2022/12/05 09:24:13;;;;;;;30.30;15.32;;;;;;;10.48;100.00;96488.69;5060957;28;20080;-45
2022/12/05 09:26:42;;;;;;;28.40;15.10;;;;;;;10.55;100.00;96487.16;5068613;28;20080;-47
2022/12/05 09:29:10;;;;;;;24.67;13.88;;;;;;;10.69;100.00;96491.94;5068791;28;20679;-49
2022/12/05 09:31:45;;;;;;;29.38;14.88;;;;;;;10.52;100.00;96487.44;5067420;28;20095;-49
2022/12/05 09:34:16;;;;;;;24.02;13.68;;;;;;;10.66;100.00;96492.22;5068573;28;20087;-46
2022/12/05 09:36:48;;;;;;;27.95;14.88;;;;;;;10.69;100.00;96488.47;5068367;28;20099;-49
2022/12/05 09:39:17;;;;;;;26.52;14.77;;;;;;;10.24;100.00;96499.69;5067627;28;20095;-48
2022/12/05 09:42:11;;;;;;;26.60;14.52;;;;;;;10.39;100.00;96505.34;5067997;28;20076;-44
2022/12/05 09:44:49;;;;;;;28.45;15.20;;;;;;;10.01;100.00;96493.88;5068484;28;20606;-41
2022/12/05 09:47:30;;;;;;;25.20;13.90;;;;;;;10.39;100.00;96500.09;5068896;28;20425;-50
2022/12/05 09:50:03;;;;;;;28.58;15.55;;;;;;;10.05;100.00;96495.28;5067800;28;20076;-42
2022/12/05 09:52:35;;;;;;;26.70;14.93;;;;;;;10.31;100.00;96495.53;5068929;28;20080;-40
2022/12/05 09:55:05;;;;;;;28.52;15.43;;;;;;;10.50;100.00;96499.13;5068054;28;20068;-47
2022/12/05 09:57:38;;;;;;;26.25;15.20;;;;;;;10.14;100.00;96501.50;5068024;28;20087;-46
2022/12/05 10:00:09;;;;;;;27.20;14.90;;;;;;;10.06;100.00;96499.56;5067837;28;20555;-53
2022/12/05 10:02:44;;;;;;;25.60;14.38;;;;;;;10.46;100.00;96495.94;5067461;28;20536;-45
2022/12/05 10:05:18;;;;;;;28.02;14.50;;;;;;;10.71;100.00;96499.72;5067875;28;20527;-51
2022/12/05 10:07:52;;;;;;;31.13;15.55;;;;;;;10.78;100.00;96494.72;5068278;28;20154;-46
2022/12/05 10:10:26;;;;;;;26.45;16.20;;;;;;;11.01;100.00;96497.78;5068754;28;20076;-44
2022/12/05 10:13:14;;;;;;;28.20;15.30;;;;;;;10.44;100.00;96513.69;5068694;28;20532;-47
2022/12/05 10:15:46;;;;;;;26.38;14.70;;;;;;;10.80;100.00;96505.94;5053106;28;20036;-44
2022/12/05 10:18:25;;;;;;;29.05;15.07;;;;;;;11.00;100.00;96504.06;5067998;28;20087;-45
2022/12/05 10:20:57;;;;;;;25.20;13.90;;;;;;;11.01;100.00;96490.72;5067972;28;20076;-47
2022/12/05 10:23:28;;;;;;;28.58;14.50;;;;;;;10.98;100.00;96498.06;5067962;28;20087;-45
2022/12/05 10:26:17;;;;;;;27.35;15.43;;;;;;;11.30;100.00;96492.38;5066657;28;20076;-45
2022/12/05 10:28:51;;;;;;;28.85;14.77;;;;;;;11.28;100.00;96496.94;5060452;28;20527;-50
2022/12/05 10:31:22;;;;;;;22.45;13.52;;;;;;;11.08;100.00;96483.88;5067262;28;20524;-46
2022/12/05 10:33:56;;;;;;;24.92;14.25;;;;;;;10.97;100.00;96483.22;5067814;28;20104;-48
2022/12/05 10:36:26;;;;;;;29.70;14.32;;;;;;;11.07;100.00;96481.38;5067730;28;20076;-43
2022/12/05 10:38:56;;;;;;;24.63;14.77;;;;;;;11.27;100.00;96487.38;5061023;28;20073;-45
2022/12/05 10:41:24;;;;;;;26.25;13.63;;;;;;;11.53;100.00;96477.75;5047600;28;20701;-47
2022/12/05 10:43:53;;;;;;;24.10;14.80;;;;;;;11.38;100.00;96488.00;5066960;28;20182;-44
2022/12/05 10:46:21;;;;;;;23.70;13.70;;;;;;;11.59;100.00;96490.34;5068061;28;20461;-43
2022/12/05 10:48:49;;;;;;;27.20;14.73;;;;;;;11.46;100.00;96474.06;5067341;28;20174;-42
2022/12/05 10:51:23;;;;;;;25.08;14.35;;;;;;;11.55;100.00;96475.78;5068853;28;20117;-42
2022/12/05 10:53:53;;;;;;;23.77;14.40;;;;;;;11.49;100.00;96472.91;5071678;28;20087;-46
2022/12/05 10:56:44;;;;;;;23.02;13.63;;;;;;;11.67;100.00;96470.31;5071910;28;20198;-46
2022/12/05 10:59:14;;;;;;;27.83;13.95;;;;;;;11.19;100.00;96471.47;5070555;28;20086;-44
2022/12/05 11:01:47;;;;;;;23.40;14.07;;;;;;;11.53;100.00;96466.38;5071054;28;20076;-45
2022/12/05 11:04:25;;;;;;;24.27;14.40;;;;;;;11.09;100.00;96472.34;5070727;28;20088;-47
2022/12/05 11:06:58;;;;;;;27.65;15.38;;;;;;;11.36;100.00;96468.03;5071415;28;20076;-44
2022/12/05 11:09:30;;;;;;;26.38;14.85;;;;;;;11.38;100.00;96464.22;5071046;28;20072;-43
2022/12/05 11:12:16;;;;;;;23.73;14.32;;;;;;;10.98;100.00;96464.63;5071077;28;20087;-46
2022/12/05 11:14:56;;;;;;;24.58;15.40;;;;;;;11.20;100.00;96454.63;5070625;28;20088;-47
2022/12/05 11:17:27;;;;;;;22.00;13.85;;;;;;;10.78;100.00;96463.88;5070749;28;20092;-45
2022/12/05 11:19:55;;;;;;;24.90;14.05;;;;;;;10.87;100.00;96462.16;5070396;28;20566;-43
2022/12/05 11:22:31;;;;;;;21.38;13.35;;;;;;;11.07;100.00;96450.53;5070357;28;20072;-45
2022/12/05 11:25:02;;;;;;;22.02;13.48;;;;;;;11.15;100.00;96452.47;5067068;28;20086;-44
2022/12/05 11:27:32;;;;;;;22.00;13.05;;;;;;;11.32;100.00;96458.72;5070221;28;20544;-43
2022/12/05 11:30:04;;;;;;;21.02;13.27;;;;;;;11.06;100.00;96454.16;5070616;28;20065;-43
2022/12/05 11:32:33;;;;;;;22.02;13.50;;;;;;;10.39;100.00;96466.69;5070081;28;20087;-41
2022/12/05 11:35:09;;;;;;;23.95;12.68;;;;;;;10.42;100.00;96466.34;5069946;28;20488;-43
2022/12/05 11:37:40;;;;;;;20.48;12.55;;;;;;;10.82;100.00;96451.22;5069667;28;20076;-48
2022/12/05 11:40:16;;;;;;;19.33;12.20;;;;;;;10.89;100.00;96450.50;5070161;28;20072;-44